Aérodrome :
LOGIN :

S'inscrire | Disclaimer

   EN    FR    IT 

 










Légende :    VFR   VFR Marginal   IFR   IFR Intensif   IFR Très Intensif
Visi : 
Plafond : 
>= 8 km
>= 3000ft
5 à 8 km
1000 à 3000 ft
1500m à 5 km
500 à 1000 ft
800 à 1500m
200 à 500 ft
< 800m
< 200 ft
Symboles :   Orages  Brouillard  Fortes neiges  Fortes précipitations  Vent > 20 kt
SIGMETs :   Divers  Orages  Givrage  Turbulence  Onde Orograph.  Cendres Volcan.







- Altitude de l'aérodrome : 779 ft
- Code IATA : CMF
- Voir les cartes d'approche


LFLB - Chambery / Aix-Les-Bains

DERNIER METAR :
  • 180700Z AUTO 19011KT 4600 -SN BR BKN015 BKN026 BKN031 00/M02 Q1026 TEMPO 18015G25KT 0500 SN BKN003 OVC012

METARs EXPIRÉS :
  • 180630Z AUTO 18015KT 6000 -SN FEW012 BKN022 OVC030 00/M03 Q1026 TEMPO 18015G25KT 0500 SN BKN003 OVC012
  • 180600Z AUTO 19012KT 7000 -SN BKN022 BKN028 BKN033 00/M03 Q1027 TEMPO 18015G25KT 0500 SN BKN003 OVC012
  • 180530Z AUTO 20012KT 9999 FEW030 BKN039 OVC049 01/M04 Q1027 TEMPO 18015G25KT 0500 SN BKN003 OVC012
  • 180500Z AUTO 20006KT 9999 SCT044 BKN056 OVC068 00/M03 Q1028
  • 180430Z AUTO 20006KT 9999 OVC068 00/M03 Q1028

TAF TAF LFLB
Valide du 18 à 06h jusqu'au 19 à 06h UTC


180500Z 1806/1906 20009KT 4000 -SN SCT012 OVC023
PROB30
TEMPO 1806/1810 18015G25KT
TEMPO 1807/1812 0500 SN BKN003 OVC012
BECMG 1814/1816 36010KT 9999 NSW
Pas de NOTAMs connus pour ce terrain.
1 SIGMET publié pour la FIR Marseille (LFMM) :
 
Givrage fort
LFMM SIGMET 1 VALID 180340/180700 LFPW
LFMM MARSEILLE FIR/UIR SEV ICE FCST WI N4630 E00430 - N4630 E00700 - N4445 E00600 - N4445 E00315 - N4630 E00430 FL040/100 MOV E 10KT NC=



MET'MAP, la Météo Aéronautique d'un coup d'oeil ! - Copyright ORBIFLY Décembre 2007 - Disclaimer

ORBIFLY MET'MAP TEAM :

Programmation & Développement : Alexandra Zaïnal
Conception & Développement : Baudouin d'Aumeries
Co-Programmation & Développement : Marc-Olivier Méhu
Soutien technique & logistique : Manuel Goepfert

Contact : metmap@orbifly.com




SOURCES & CREDITS :

   NOAA